sensor_id;sensor_type;location;lat;lon;timestamp;pressure;altitude;pressure_sealevel;temperature;humidity
75759;BME280;64371;47.566;19.086;2023-06-14T00:01:32;100163.81;;;13.10;77.50
75759;BME280;64371;47.566;19.086;2023-06-14T00:04:36;100171.22;;;13.21;77.18
75759;BME280;64371;47.566;19.086;2023-06-14T00:07:41;100175.63;;;13.26;77.53
75759;BME280;64371;47.566;19.086;2023-06-14T00:10:46;100165.25;;;13.16;78.11
75759;BME280;64371;47.566;19.086;2023-06-14T00:13:48;100168.94;;;13.06;79.17
75759;BME280;64371;47.566;19.086;2023-06-14T00:16:51;100176.41;;;12.91;80.07
75759;BME280;64371;47.566;19.086;2023-06-14T00:19:55;100175.25;;;12.83;80.75
75759;BME280;64371;47.566;19.086;2023-06-14T00:23:01;100178.06;;;12.87;80.81
75759;BME280;64371;47.566;19.086;2023-06-14T00:26:04;100178.25;;;12.90;80.36
75759;BME280;64371;47.566;19.086;2023-06-14T00:29:06;100181.91;;;12.81;80.80
75759;BME280;64371;47.566;19.086;2023-06-14T00:32:09;100176.72;;;12.76;81.08
75759;BME280;64371;47.566;19.086;2023-06-14T00:35:11;100187.47;;;12.79;80.93
75759;BME280;64371;47.566;19.086;2023-06-14T00:38:14;100193.34;;;12.90;80.90
75759;BME280;64371;47.566;19.086;2023-06-14T00:41:19;100192.88;;;12.88;80.67
75759;BME280;64371;47.566;19.086;2023-06-14T00:44:22;100186.38;;;12.94;80.60
75759;BME280;64371;47.566;19.086;2023-06-14T00:47:24;100186.78;;;12.87;80.94
75759;BME280;64371;47.566;19.086;2023-06-14T00:50:27;100188.53;;;12.92;80.77
75759;BME280;64371;47.566;19.086;2023-06-14T00:53:31;100196.19;;;12.80;81.49
75759;BME280;64371;47.566;19.086;2023-06-14T00:56:36;100191.44;;;12.68;82.11
75759;BME280;64371;47.566;19.086;2023-06-14T00:59:44;100194.97;;;12.63;82.55
75759;BME280;64371;47.566;19.086;2023-06-14T01:02:47;100192.59;;;12.62;83.13
75759;BME280;64371;47.566;19.086;2023-06-14T01:05:59;100192.59;;;12.62;83.38
75759;BME280;64371;47.566;19.086;2023-06-14T01:09:17;100179.38;;;12.62;83.07
75759;BME280;64371;47.566;19.086;2023-06-14T01:16:04;100181.75;;;12.63;83.57
75759;BME280;64371;47.566;19.086;2023-06-14T01:19:10;100183.50;;;12.54;83.72
75759;BME280;64371;47.566;19.086;2023-06-14T01:22:16;100173.81;;;12.50;84.27
75759;BME280;64371;47.566;19.086;2023-06-14T01:25:19;100178.91;;;12.46;84.40
75759;BME280;64371;47.566;19.086;2023-06-14T01:28:23;100175.28;;;12.29;85.41
75759;BME280;64371;47.566;19.086;2023-06-14T01:31:27;100174.88;;;12.22;85.43
75759;BME280;64371;47.566;19.086;2023-06-14T01:34:31;100167.63;;;12.14;85.50
75759;BME280;64371;47.566;19.086;2023-06-14T01:37:34;100178.72;;;12.16;86.23
75759;BME280;64371;47.566;19.086;2023-06-14T01:40:38;100171.38;;;12.26;85.37
75759;BME280;64371;47.566;19.086;2023-06-14T01:43:41;100176.84;;;12.16;86.15
75759;BME280;64371;47.566;19.086;2023-06-14T01:46:45;100185.06;;;12.28;85.91
75759;BME280;64371;47.566;19.086;2023-06-14T01:49:47;100186.84;;;12.19;86.23
75759;BME280;64371;47.566;19.086;2023-06-14T01:52:50;100180.84;;;12.14;86.66
75759;BME280;64371;47.566;19.086;2023-06-14T01:55:52;100183.22;;;12.15;86.83
75759;BME280;64371;47.566;19.086;2023-06-14T01:58:57;100187.91;;;12.05;87.35
75759;BME280;64371;47.566;19.086;2023-06-14T02:02:00;100181.81;;;11.90;88.07
75759;BME280;64371;47.566;19.086;2023-06-14T02:05:02;100184.25;;;11.87;88.23
75759;BME280;64371;47.566;19.086;2023-06-14T02:08:06;100190.78;;;11.89;88.11
75759;BME280;64371;47.566;19.086;2023-06-14T02:11:09;100196.59;;;11.91;88.84
75759;BME280;64371;47.566;19.086;2023-06-14T02:14:12;100200.78;;;11.92;88.42
75759;BME280;64371;47.566;19.086;2023-06-14T02:17:14;100199.72;;;11.93;88.88
75759;BME280;64371;47.566;19.086;2023-06-14T02:20:17;100202.47;;;11.88;88.91
75759;BME280;64371;47.566;19.086;2023-06-14T02:23:20;100197.97;;;11.89;89.04
75759;BME280;64371;47.566;19.086;2023-06-14T02:26:23;100190.41;;;11.82;88.76
75759;BME280;64371;47.566;19.086;2023-06-14T02:29:25;100196.47;;;11.83;89.57
75759;BME280;64371;47.566;19.086;2023-06-14T02:32:27;100198.72;;;11.89;89.08
75759;BME280;64371;47.566;19.086;2023-06-14T02:35:30;100187.84;;;11.77;89.33
75759;BME280;64371;47.566;19.086;2023-06-14T02:38:32;100195.00;;;11.77;89.61
75759;BME280;64371;47.566;19.086;2023-06-14T02:41:35;100192.69;;;11.89;89.45
75759;BME280;64371;47.566;19.086;2023-06-14T02:44:39;100197.25;;;11.83;89.22
75759;BME280;64371;47.566;19.086;2023-06-14T02:47:41;100193.81;;;11.83;89.65
75759;BME280;64371;47.566;19.086;2023-06-14T02:50:47;100189.63;;;11.82;89.36
75759;BME280;64371;47.566;19.086;2023-06-14T02:53:49;100183.84;;;11.80;89.35
75759;BME280;64371;47.566;19.086;2023-06-14T02:56:52;100182.78;;;11.81;88.78
75759;BME280;64371;47.566;19.086;2023-06-14T02:59:55;100193.03;;;11.82;89.54
75759;BME280;64371;47.566;19.086;2023-06-14T03:02:57;100194.41;;;11.80;89.76
75759;BME280;64371;47.566;19.086;2023-06-14T03:06:00;100172.13;;;11.86;88.66
75759;BME280;64371;47.566;19.086;2023-06-14T03:09:09;100187.31;;;11.94;88.31
75759;BME280;64371;47.566;19.086;2023-06-14T03:12:14;100183.09;;;11.93;88.52
75759;BME280;64371;47.566;19.086;2023-06-14T03:15:17;100187.72;;;12.01;89.16
75759;BME280;64371;47.566;19.086;2023-06-14T03:18:22;100184.38;;;12.09;88.47
75759;BME280;64371;47.566;19.086;2023-06-14T03:21:29;100190.94;;;12.12;88.29
75759;BME280;64371;47.566;19.086;2023-06-14T03:24:34;100190.66;;;12.13;88.06
75759;BME280;64371;47.566;19.086;2023-06-14T03:27:44;100197.00;;;12.12;88.64
75759;BME280;64371;47.566;19.086;2023-06-14T03:30:47;100195.53;;;12.06;88.87
75759;BME280;64371;47.566;19.086;2023-06-14T03:33:50;100193.97;;;12.19;88.14
75759;BME280;64371;47.566;19.086;2023-06-14T03:36:54;100190.97;;;12.25;88.11
75759;BME280;64371;47.566;19.086;2023-06-14T03:40:00;100192.59;;;12.21;87.84
75759;BME280;64371;47.566;19.086;2023-06-14T03:43:06;100204.75;;;12.36;87.44
75759;BME280;64371;47.566;19.086;2023-06-14T03:46:08;100206.81;;;12.39;87.44
75759;BME280;64371;47.566;19.086;2023-06-14T03:49:12;100188.31;;;12.39;87.32
75759;BME280;64371;47.566;19.086;2023-06-14T03:52:17;100197.13;;;12.34;87.26
75759;BME280;64371;47.566;19.086;2023-06-14T03:55:21;100195.75;;;12.50;86.80
75759;BME280;64371;47.566;19.086;2023-06-14T03:58:44;100210.03;;;12.63;86.13
75759;BME280;64371;47.566;19.086;2023-06-14T04:01:47;100213.25;;;12.60;86.63
75759;BME280;64371;47.566;19.086;2023-06-14T04:04:54;100203.97;;;12.62;86.48
75759;BME280;64371;47.566;19.086;2023-06-14T04:07:57;100202.00;;;12.68;85.87
75759;BME280;64371;47.566;19.086;2023-06-14T04:11:01;100208.53;;;12.84;85.30
75759;BME280;64371;47.566;19.086;2023-06-14T04:14:05;100214.72;;;12.93;84.97
75759;BME280;64371;47.566;19.086;2023-06-14T04:17:08;100216.00;;;12.82;85.13
75759;BME280;64371;47.566;19.086;2023-06-14T04:20:14;100221.75;;;12.98;84.88
75759;BME280;64371;47.566;19.086;2023-06-14T04:23:17;100209.78;;;13.14;84.20
75759;BME280;64371;47.566;19.086;2023-06-14T04:26:24;100226.66;;;13.40;83.63
75759;BME280;64371;47.566;19.086;2023-06-14T04:29:32;100223.75;;;13.28;84.12
75759;BME280;64371;47.566;19.086;2023-06-14T04:32:39;100229.16;;;14.12;81.54
75759;BME280;64371;47.566;19.086;2023-06-14T04:35:44;100238.53;;;15.39;75.70
75759;BME280;64371;47.566;19.086;2023-06-14T04:38:50;100237.91;;;15.76;72.95
75759;BME280;64371;47.566;19.086;2023-06-14T04:42:01;100234.97;;;16.62;70.39
75759;BME280;64371;47.566;19.086;2023-06-14T04:45:09;100241.81;;;17.21;67.74
75759;BME280;64371;47.566;19.086;2023-06-14T04:48:13;100237.25;;;17.01;67.51
75759;BME280;64371;47.566;19.086;2023-06-14T04:51:16;100230.69;;;17.40;66.25
75759;BME280;64371;47.566;19.086;2023-06-14T04:54:18;100245.75;;;18.34;62.85
75759;BME280;64371;47.566;19.086;2023-06-14T04:57:22;100239.84;;;18.41;60.49
75759;BME280;64371;47.566;19.086;2023-06-14T05:00:27;100233.56;;;18.82;59.09
75759;BME280;64371;47.566;19.086;2023-06-14T05:03:29;100230.78;;;18.66;58.51
75759;BME280;64371;47.566;19.086;2023-06-14T05:06:33;100253.78;;;18.83;58.78
75759;BME280;64371;47.566;19.086;2023-06-14T05:09:36;100251.97;;;19.11;57.42
75759;BME280;64371;47.566;19.086;2023-06-14T05:12:38;100247.56;;;18.79;58.37
75759;BME280;64371;47.566;19.086;2023-06-14T05:15:43;100248.44;;;18.83;58.07
75759;BME280;64371;47.566;19.086;2023-06-14T05:18:45;100237.56;;;19.40;56.46
75759;BME280;64371;47.566;19.086;2023-06-14T05:21:49;100254.25;;;19.64;55.69
75759;BME280;64371;47.566;19.086;2023-06-14T05:24:55;100257.59;;;19.73;55.50
75759;BME280;64371;47.566;19.086;2023-06-14T05:27:59;100253.41;;;19.60;56.13
75759;BME280;64371;47.566;19.086;2023-06-14T05:31:01;100234.78;;;18.48;58.58
75759;BME280;64371;47.566;19.086;2023-06-14T05:34:04;100256.75;;;18.21;60.54
75759;BME280;64371;47.566;19.086;2023-06-14T05:37:07;100236.25;;;18.58;59.05
75759;BME280;64371;47.566;19.086;2023-06-14T05:40:09;100248.63;;;19.54;56.13
75759;BME280;64371;47.566;19.086;2023-06-14T05:43:12;100251.78;;;19.44;56.25
75759;BME280;64371;47.566;19.086;2023-06-14T05:46:14;100241.91;;;17.87;60.96
75759;BME280;64371;47.566;19.086;2023-06-14T05:49:17;100250.84;;;17.29;63.16
75759;BME280;64371;47.566;19.086;2023-06-14T05:52:19;100249.75;;;17.51;63.04
75759;BME280;64371;47.566;19.086;2023-06-14T05:55:22;100234.66;;;19.45;56.67
75759;BME280;64371;47.566;19.086;2023-06-14T05:58:25;100252.00;;;20.88;52.48
75759;BME280;64371;47.566;19.086;2023-06-14T06:01:27;100258.78;;;21.17;51.45
75759;BME280;64371;47.566;19.086;2023-06-14T06:04:30;100252.78;;;21.42;50.81
75759;BME280;64371;47.566;19.086;2023-06-14T06:07:33;100251.66;;;21.62;50.23
75759;BME280;64371;47.566;19.086;2023-06-14T06:10:38;100261.34;;;22.09;49.60
75759;BME280;64371;47.566;19.086;2023-06-14T06:13:41;100248.94;;;21.05;51.27
75759;BME280;64371;47.566;19.086;2023-06-14T06:16:43;100261.34;;;20.78;52.56
75759;BME280;64371;47.566;19.086;2023-06-14T06:19:46;100248.50;;;20.21;54.38
75759;BME280;64371;47.566;19.086;2023-06-14T06:22:48;100258.38;;;20.33;54.29
75759;BME280;64371;47.566;19.086;2023-06-14T06:25:51;100257.13;;;20.15;54.91
75759;BME280;64371;47.566;19.086;2023-06-14T06:28:54;100258.56;;;19.53;56.16
75759;BME280;64371;47.566;19.086;2023-06-14T06:31:56;100256.44;;;19.74;55.59
75759;BME280;64371;47.566;19.086;2023-06-14T06:34:58;100261.16;;;19.26;57.40
75759;BME280;64371;47.566;19.086;2023-06-14T06:38:02;100253.06;;;19.62;57.11
75759;BME280;64371;47.566;19.086;2023-06-14T06:41:04;100261.03;;;20.64;53.58
75759;BME280;64371;47.566;19.086;2023-06-14T06:44:07;100251.44;;;21.52;50.72
75759;BME280;64371;47.566;19.086;2023-06-14T06:47:10;100259.16;;;20.99;52.61
75759;BME280;64371;47.566;19.086;2023-06-14T06:50:13;100255.78;;;22.92;47.82
75759;BME280;64371;47.566;19.086;2023-06-14T06:53:15;100258.81;;;23.47;46.03
75759;BME280;64371;47.566;19.086;2023-06-14T06:56:28;100249.63;;;22.92;47.00
75759;BME280;64371;47.566;19.086;2023-06-14T06:59:30;100255.97;;;21.09;52.10
75759;BME280;64371;47.566;19.086;2023-06-14T07:02:33;100258.41;;;21.95;49.79
75759;BME280;64371;47.566;19.086;2023-06-14T07:05:35;100248.81;;;21.74;49.72
75759;BME280;64371;47.566;19.086;2023-06-14T07:08:38;100244.53;;;21.32;51.12
75759;BME280;64371;47.566;19.086;2023-06-14T07:11:41;100251.38;;;20.94;51.90
75759;BME280;64371;47.566;19.086;2023-06-14T07:14:44;100253.09;;;22.66;48.03
75759;BME280;64371;47.566;19.086;2023-06-14T07:17:46;100246.53;;;23.20;46.10
75759;BME280;64371;47.566;19.086;2023-06-14T07:20:48;100269.50;;;22.38;48.27
75759;BME280;64371;47.566;19.086;2023-06-14T07:23:54;100260.66;;;22.61;47.80
75759;BME280;64371;47.566;19.086;2023-06-14T07:26:56;100272.25;;;25.26;42.46
75759;BME280;64371;47.566;19.086;2023-06-14T07:30:13;100246.06;;;25.33;41.21
75759;BME280;64371;47.566;19.086;2023-06-14T07:33:15;100256.69;;;26.48;39.01
75759;BME280;64371;47.566;19.086;2023-06-14T07:36:18;100248.97;;;26.21;38.91
75759;BME280;64371;47.566;19.086;2023-06-14T07:39:20;100250.91;;;26.42;39.33
75759;BME280;64371;47.566;19.086;2023-06-14T07:42:22;100273.09;;;27.48;36.34
75759;BME280;64371;47.566;19.086;2023-06-14T07:45:25;100255.50;;;25.82;39.81
75759;BME280;64371;47.566;19.086;2023-06-14T07:48:29;100278.41;;;25.23;41.22
75759;BME280;64371;47.566;19.086;2023-06-14T07:51:32;100274.44;;;24.99;41.97
75759;BME280;64371;47.566;19.086;2023-06-14T07:54:34;100272.59;;;25.24;40.86
75759;BME280;64371;47.566;19.086;2023-06-14T07:57:37;100268.84;;;25.43;40.96
75759;BME280;64371;47.566;19.086;2023-06-14T08:00:42;100273.38;;;24.12;42.33
75759;BME280;64371;47.566;19.086;2023-06-14T08:03:45;100276.72;;;24.06;43.90
75759;BME280;64371;47.566;19.086;2023-06-14T08:06:47;100283.34;;;23.75;43.36
75759;BME280;64371;47.566;19.086;2023-06-14T08:09:59;100244.44;;;23.36;43.84
75759;BME280;64371;47.566;19.086;2023-06-14T08:13:04;100275.28;;;24.56;42.83
75759;BME280;64371;47.566;19.086;2023-06-14T08:16:07;100272.25;;;24.64;42.14
75759;BME280;64371;47.566;19.086;2023-06-14T08:19:09;100264.00;;;25.91;39.91
75759;BME280;64371;47.566;19.086;2023-06-14T08:22:12;100276.41;;;26.13;39.21
75759;BME280;64371;47.566;19.086;2023-06-14T08:25:15;100278.53;;;25.51;40.90
75759;BME280;64371;47.566;19.086;2023-06-14T08:28:18;100268.81;;;24.71;42.28
75759;BME280;64371;47.566;19.086;2023-06-14T08:31:20;100269.44;;;25.01;41.47
75759;BME280;64371;47.566;19.086;2023-06-14T08:34:23;100274.31;;;25.60;40.18
75759;BME280;64371;47.566;19.086;2023-06-14T08:37:26;100272.75;;;25.49;40.35
75759;BME280;64371;47.566;19.086;2023-06-14T08:40:30;100285.59;;;25.84;39.78
75759;BME280;64371;47.566;19.086;2023-06-14T08:43:33;100262.44;;;24.93;40.32
75759;BME280;64371;47.566;19.086;2023-06-14T08:46:37;100293.31;;;24.48;40.96
75759;BME280;64371;47.566;19.086;2023-06-14T08:49:40;100274.03;;;23.69;43.25
75759;BME280;64371;47.566;19.086;2023-06-14T08:52:52;100296.59;;;24.27;43.24
75759;BME280;64371;47.566;19.086;2023-06-14T08:55:55;100276.59;;;24.32;42.42
75759;BME280;64371;47.566;19.086;2023-06-14T08:59:03;100292.34;;;24.26;42.62
75759;BME280;64371;47.566;19.086;2023-06-14T09:02:06;100310.72;;;24.17;43.65
75759;BME280;64371;47.566;19.086;2023-06-14T09:05:14;100310.44;;;24.29;41.48
75759;BME280;64371;47.566;19.086;2023-06-14T09:08:23;100312.69;;;23.24;42.78
75759;BME280;64371;47.566;19.086;2023-06-14T09:11:25;100314.75;;;23.97;43.08
75759;BME280;64371;47.566;19.086;2023-06-14T09:14:28;100305.75;;;23.86;41.71
75759;BME280;64371;47.566;19.086;2023-06-14T09:17:37;100314.72;;;25.39;40.15
75759;BME280;64371;47.566;19.086;2023-06-14T09:20:40;100307.56;;;25.03;40.70
75759;BME280;64371;47.566;19.086;2023-06-14T09:23:45;100316.53;;;24.63;41.25
75759;BME280;64371;47.566;19.086;2023-06-14T09:26:50;100317.91;;;24.90;41.16
75759;BME280;64371;47.566;19.086;2023-06-14T09:29:53;100313.94;;;25.35;40.16
75759;BME280;64371;47.566;19.086;2023-06-14T09:32:55;100299.69;;;23.93;41.61
75759;BME280;64371;47.566;19.086;2023-06-14T09:36:09;100284.59;;;24.21;41.29
75759;BME280;64371;47.566;19.086;2023-06-14T09:39:17;100293.38;;;25.13;38.98
75759;BME280;64371;47.566;19.086;2023-06-14T09:42:19;100299.06;;;25.69;38.07
75759;BME280;64371;47.566;19.086;2023-06-14T09:45:22;100282.53;;;26.06;37.10
75759;BME280;64371;47.566;19.086;2023-06-14T09:48:26;100293.03;;;26.78;36.25
75759;BME280;64371;47.566;19.086;2023-06-14T09:51:34;100260.16;;;25.99;36.96
75759;BME280;64371;47.566;19.086;2023-06-14T09:54:41;100288.38;;;26.22;36.79
75759;BME280;64371;47.566;19.086;2023-06-14T09:57:51;100262.41;;;27.06;35.34
75759;BME280;64371;47.566;19.086;2023-06-14T10:00:55;100277.56;;;27.80;34.45
75759;BME280;64371;47.566;19.086;2023-06-14T10:04:04;100271.75;;;26.91;34.47
75759;BME280;64371;47.566;19.086;2023-06-14T10:07:17;100279.47;;;26.71;37.03
75759;BME280;64371;47.566;19.086;2023-06-14T10:10:22;100284.09;;;26.85;36.61
75759;BME280;64371;47.566;19.086;2023-06-14T10:13:26;100270.97;;;26.87;35.96
75759;BME280;64371;47.566;19.086;2023-06-14T10:16:40;100239.09;;;27.40;35.08
75759;BME280;64371;47.566;19.086;2023-06-14T10:19:53;100274.09;;;26.40;36.04
75759;BME280;64371;47.566;19.086;2023-06-14T10:23:01;100267.47;;;27.01;36.08
75759;BME280;64371;47.566;19.086;2023-06-14T10:26:08;100269.03;;;26.03;33.99
75759;BME280;64371;47.566;19.086;2023-06-14T10:29:12;100268.28;;;26.23;37.08
75759;BME280;64371;47.566;19.086;2023-06-14T10:32:35;100261.75;;;24.52;38.43
75759;BME280;64371;47.566;19.086;2023-06-14T10:36:30;100259.25;;;24.77;37.34
75759;BME280;64371;47.566;19.086;2023-06-14T10:39:52;100257.97;;;25.25;39.32
75759;BME280;64371;47.566;19.086;2023-06-14T10:42:55;100264.66;;;25.52;38.62
75759;BME280;64371;47.566;19.086;2023-06-14T10:46:20;100274.94;;;25.26;39.65
75759;BME280;64371;47.566;19.086;2023-06-14T10:49:45;100254.34;;;24.93;40.02
75759;BME280;64371;47.566;19.086;2023-06-14T10:52:48;100257.00;;;24.82;41.34
75759;BME280;64371;47.566;19.086;2023-06-14T10:55:50;100256.47;;;24.66;41.73
75759;BME280;64371;47.566;19.086;2023-06-14T10:58:53;100255.66;;;25.27;39.98
75759;BME280;64371;47.566;19.086;2023-06-14T11:05:03;100246.66;;;26.06;39.70
75759;BME280;64371;47.566;19.086;2023-06-14T11:11:22;100259.88;;;25.18;36.72
75759;BME280;64371;47.566;19.086;2023-06-14T11:14:25;100249.19;;;25.42;37.42
75759;BME280;64371;47.566;19.086;2023-06-14T11:17:27;100253.97;;;24.94;37.74
75759;BME280;64371;47.566;19.086;2023-06-14T11:20:31;100239.22;;;25.50;39.38
75759;BME280;64371;47.566;19.086;2023-06-14T11:23:35;100231.25;;;24.95;38.34
75759;BME280;64371;47.566;19.086;2023-06-14T11:26:38;100240.22;;;25.24;39.13
75759;BME280;64371;47.566;19.086;2023-06-14T11:29:48;100250.50;;;24.94;37.03
75759;BME280;64371;47.566;19.086;2023-06-14T11:32:52;100229.06;;;24.57;38.31
75759;BME280;64371;47.566;19.086;2023-06-14T11:36:02;100214.63;;;24.28;38.57
75759;BME280;64371;47.566;19.086;2023-06-14T11:39:07;100245.66;;;25.31;38.78
75759;BME280;64371;47.566;19.086;2023-06-14T11:42:14;100233.59;;;25.08;37.80
75759;BME280;64371;47.566;19.086;2023-06-14T11:45:18;100245.22;;;25.22;37.39
75759;BME280;64371;47.566;19.086;2023-06-14T11:48:21;100246.84;;;24.69;38.51
75759;BME280;64371;47.566;19.086;2023-06-14T11:51:23;100240.34;;;25.49;38.20
75759;BME280;64371;47.566;19.086;2023-06-14T11:54:32;100236.16;;;25.69;37.99
75759;BME280;64371;47.566;19.086;2023-06-14T11:57:35;100257.38;;;25.67;39.27
75759;BME280;64371;47.566;19.086;2023-06-14T12:00:41;100235.06;;;24.91;39.76
75759;BME280;64371;47.566;19.086;2023-06-14T12:03:48;100251.28;;;24.94;40.26
75759;BME280;64371;47.566;19.086;2023-06-14T12:06:57;100250.28;;;24.62;38.77
75759;BME280;64371;47.566;19.086;2023-06-14T12:13:02;100217.75;;;24.37;39.90
75759;BME280;64371;47.566;19.086;2023-06-14T12:16:13;100252.97;;;25.24;39.35
75759;BME280;64371;47.566;19.086;2023-06-14T12:19:18;100227.34;;;24.86;37.12
75759;BME280;64371;47.566;19.086;2023-06-14T12:22:30;100203.91;;;24.97;39.13
75759;BME280;64371;47.566;19.086;2023-06-14T12:39:11;100225.28;;;24.65;39.83
75759;BME280;64371;47.566;19.086;2023-06-14T12:42:40;100185.66;;;24.76;37.61
75759;BME280;64371;47.566;19.086;2023-06-14T12:46:20;100260.25;;;25.20;39.09
75759;BME280;64371;47.566;19.086;2023-06-14T12:49:26;100250.13;;;24.95;38.16
75759;BME280;64371;47.566;19.086;2023-06-14T12:52:34;100205.47;;;25.01;36.98
75759;BME280;64371;47.566;19.086;2023-06-14T12:55:38;100242.81;;;24.96;37.80
75759;BME280;64371;47.566;19.086;2023-06-14T12:58:41;100245.28;;;25.33;37.13
75759;BME280;64371;47.566;19.086;2023-06-14T13:01:43;100232.16;;;25.31;37.60
75759;BME280;64371;47.566;19.086;2023-06-14T13:04:47;100210.66;;;25.45;35.10
75759;BME280;64371;47.566;19.086;2023-06-14T13:07:49;100210.31;;;25.72;34.75
75759;BME280;64371;47.566;19.086;2023-06-14T13:10:52;100207.59;;;25.57;33.99
75759;BME280;64371;47.566;19.086;2023-06-14T13:13:55;100227.19;;;25.40;37.10
75759;BME280;64371;47.566;19.086;2023-06-14T13:16:57;100232.16;;;25.31;33.78
75759;BME280;64371;47.566;19.086;2023-06-14T13:19:59;100235.25;;;25.26;38.35
75759;BME280;64371;47.566;19.086;2023-06-14T13:23:02;100226.00;;;25.24;38.78
75759;BME280;64371;47.566;19.086;2023-06-14T13:26:09;100225.69;;;25.46;35.61
75759;BME280;64371;47.566;19.086;2023-06-14T13:29:12;100229.09;;;25.36;36.18
75759;BME280;64371;47.566;19.086;2023-06-14T13:32:14;100224.97;;;25.53;38.22
75759;BME280;64371;47.566;19.086;2023-06-14T13:35:16;100221.47;;;25.63;38.39
75759;BME280;64371;47.566;19.086;2023-06-14T13:38:28;100228.44;;;25.57;39.25
75759;BME280;64371;47.566;19.086;2023-06-14T13:41:31;100213.78;;;25.61;39.58
75759;BME280;64371;47.566;19.086;2023-06-14T13:44:34;100209.19;;;25.83;38.73
75759;BME280;64371;47.566;19.086;2023-06-14T13:47:36;100214.59;;;25.87;38.15
75759;BME280;64371;47.566;19.086;2023-06-14T13:50:40;100206.88;;;25.82;34.11
75759;BME280;64371;47.566;19.086;2023-06-14T13:53:43;100202.50;;;25.35;31.92
75759;BME280;64371;47.566;19.086;2023-06-14T13:56:45;100210.50;;;25.07;34.64
75759;BME280;64371;47.566;19.086;2023-06-14T13:59:48;100215.28;;;24.66;30.73
75759;BME280;64371;47.566;19.086;2023-06-14T14:02:52;100215.44;;;24.36;30.89
75759;BME280;64371;47.566;19.086;2023-06-14T14:05:56;100215.78;;;24.82;31.13
75759;BME280;64371;47.566;19.086;2023-06-14T14:08:59;100213.59;;;25.12;31.20
75759;BME280;64371;47.566;19.086;2023-06-14T14:12:01;100214.34;;;25.05;30.98
75759;BME280;64371;47.566;19.086;2023-06-14T14:15:05;100213.09;;;24.89;31.17
75759;BME280;64371;47.566;19.086;2023-06-14T14:18:14;100209.81;;;24.59;31.41
75759;BME280;64371;47.566;19.086;2023-06-14T14:21:17;100207.94;;;24.63;31.44
75759;BME280;64371;47.566;19.086;2023-06-14T14:24:20;100210.84;;;24.36;31.71
75759;BME280;64371;47.566;19.086;2023-06-14T14:27:22;100212.53;;;24.62;31.36
75759;BME280;64371;47.566;19.086;2023-06-14T14:30:25;100207.94;;;24.66;31.16
75759;BME280;64371;47.566;19.086;2023-06-14T14:33:27;100216.50;;;24.79;31.92
75759;BME280;64371;47.566;19.086;2023-06-14T14:36:30;100200.78;;;24.91;31.05
75759;BME280;64371;47.566;19.086;2023-06-14T14:39:32;100214.03;;;24.53;32.02
75759;BME280;64371;47.566;19.086;2023-06-14T14:42:36;100209.50;;;24.67;30.73
75759;BME280;64371;47.566;19.086;2023-06-14T14:45:38;100210.06;;;24.36;30.86
75759;BME280;64371;47.566;19.086;2023-06-14T14:48:41;100208.00;;;23.78;33.17
75759;BME280;64371;47.566;19.086;2023-06-14T14:51:43;100206.97;;;24.34;32.59
75759;BME280;64371;47.566;19.086;2023-06-14T14:54:45;100219.84;;;24.11;33.08
75759;BME280;64371;47.566;19.086;2023-06-14T14:57:48;100213.06;;;24.24;32.65
75759;BME280;64371;47.566;19.086;2023-06-14T15:00:50;100203.50;;;24.37;32.28
75759;BME280;64371;47.566;19.086;2023-06-14T15:03:53;100206.53;;;24.32;32.11
75759;BME280;64371;47.566;19.086;2023-06-14T15:07:01;100200.81;;;23.49;33.82
75759;BME280;64371;47.566;19.086;2023-06-14T15:10:07;100194.78;;;23.66;34.63
75759;BME280;64371;47.566;19.086;2023-06-14T15:13:12;100194.03;;;23.66;34.13
75759;BME280;64371;47.566;19.086;2023-06-14T15:16:14;100198.91;;;23.94;34.57
75759;BME280;64371;47.566;19.086;2023-06-14T15:19:20;100202.13;;;23.69;35.66
75759;BME280;64371;47.566;19.086;2023-06-14T15:22:22;100201.97;;;23.92;36.27
75759;BME280;64371;47.566;19.086;2023-06-14T15:25:26;100199.69;;;23.54;36.76
75759;BME280;64371;47.566;19.086;2023-06-14T15:28:29;100186.06;;;23.76;37.01
75759;BME280;64371;47.566;19.086;2023-06-14T15:31:31;100191.31;;;23.62;36.94
75759;BME280;64371;47.566;19.086;2023-06-14T15:34:33;100196.09;;;23.43;38.24
75759;BME280;64371;47.566;19.086;2023-06-14T15:37:36;100200.38;;;23.47;38.83
75759;BME280;64371;47.566;19.086;2023-06-14T15:40:38;100180.81;;;23.17;39.69
75759;BME280;64371;47.566;19.086;2023-06-14T15:43:40;100189.13;;;23.38;39.45
75759;BME280;64371;47.566;19.086;2023-06-14T15:46:43;100181.59;;;23.18;39.84
75759;BME280;64371;47.566;19.086;2023-06-14T15:49:45;100192.28;;;22.84;40.48
75759;BME280;64371;47.566;19.086;2023-06-14T15:52:47;100194.91;;;23.07;40.22
75759;BME280;64371;47.566;19.086;2023-06-14T15:55:53;100197.75;;;22.91;40.54
75759;BME280;64371;47.566;19.086;2023-06-14T15:58:58;100191.88;;;22.56;41.42
75759;BME280;64371;47.566;19.086;2023-06-14T16:02:01;100197.56;;;22.51;42.07
75759;BME280;64371;47.566;19.086;2023-06-14T16:05:03;100201.84;;;22.56;41.42
75759;BME280;64371;47.566;19.086;2023-06-14T16:08:06;100197.78;;;22.65;41.21
75759;BME280;64371;47.566;19.086;2023-06-14T16:11:09;100197.31;;;22.86;40.95
75759;BME280;64371;47.566;19.086;2023-06-14T16:14:12;100205.66;;;23.07;40.64
75759;BME280;64371;47.566;19.086;2023-06-14T16:17:14;100209.44;;;23.02;40.50
75759;BME280;64371;47.566;19.086;2023-06-14T16:20:16;100210.28;;;22.80;41.23